sensor_id;sensor_type;location;lat;lon;timestamp;pressure;altitude;pressure_sealevel;temperature;humidity
77041;BME280;65974;42.664;23.264;2024-01-11T00:02:09;95295.41;;;-6.29;88.98
77041;BME280;65974;42.664;23.264;2024-01-11T00:04:35;95291.44;;;-6.42;89.46
77041;BME280;65974;42.664;23.264;2024-01-11T00:07:01;95293.75;;;-6.45;89.49
77041;BME280;65974;42.664;23.264;2024-01-11T00:09:26;95290.66;;;-6.42;90.45
77041;BME280;65974;42.664;23.264;2024-01-11T00:11:52;95265.25;;;-6.45;89.62
77041;BME280;65974;42.664;23.264;2024-01-11T00:14:17;95262.97;;;-6.37;89.05
77041;BME280;65974;42.664;23.264;2024-01-11T00:16:43;95274.03;;;-6.51;88.88
77041;BME280;65974;42.664;23.264;2024-01-11T00:19:10;95251.97;;;-6.54;89.47
77041;BME280;65974;42.664;23.264;2024-01-11T00:21:38;95277.00;;;-6.32;88.80
77041;BME280;65974;42.664;23.264;2024-01-11T00:24:04;95277.19;;;-6.44;88.98
77041;BME280;65974;42.664;23.264;2024-01-11T00:26:29;95275.34;;;-6.49;90.51
77041;BME280;65974;42.664;23.264;2024-01-11T00:28:55;95274.53;;;-6.49;89.42
77041;BME280;65974;42.664;23.264;2024-01-11T00:31:20;95274.53;;;-6.49;89.85
77041;BME280;65974;42.664;23.264;2024-01-11T00:33:45;95282.09;;;-6.48;89.48
77041;BME280;65974;42.664;23.264;2024-01-11T00:36:17;95274.84;;;-6.46;89.02
77041;BME280;65974;42.664;23.264;2024-01-11T00:38:43;95266.50;;;-6.53;89.26
77041;BME280;65974;42.664;23.264;2024-01-11T00:41:14;95265.94;;;-6.65;89.73
77041;BME280;65974;42.664;23.264;2024-01-11T00:43:40;95270.53;;;-6.72;90.31
77041;BME280;65974;42.664;23.264;2024-01-11T00:46:07;95268.00;;;-6.67;90.41
77041;BME280;65974;42.664;23.264;2024-01-11T00:48:34;95264.34;;;-6.71;90.50
77041;BME280;65974;42.664;23.264;2024-01-11T00:50:59;95264.09;;;-6.69;90.38
77041;BME280;65974;42.664;23.264;2024-01-11T00:53:26;95260.44;;;-6.68;90.10
77041;BME280;65974;42.664;23.264;2024-01-11T00:55:57;95260.69;;;-6.70;90.23
77041;BME280;65974;42.664;23.264;2024-01-11T00:58:22;95247.28;;;-6.67;90.42
77041;BME280;65974;42.664;23.264;2024-01-11T01:00:49;95256.91;;;-6.57;89.71
77041;BME280;65974;42.664;23.264;2024-01-11T01:03:18;95248.59;;;-6.59;90.37
77041;BME280;65974;42.664;23.264;2024-01-11T01:05:45;95252.22;;;-6.60;89.88
77041;BME280;65974;42.664;23.264;2024-01-11T01:08:12;95253.50;;;-6.63;90.98
77041;BME280;65974;42.664;23.264;2024-01-11T01:10:39;95248.00;;;-6.71;89.18
77041;BME280;65974;42.664;23.264;2024-01-11T01:13:05;95245.44;;;-6.66;89.89
77041;BME280;65974;42.664;23.264;2024-01-11T01:15:31;95241.78;;;-6.70;89.31
77041;BME280;65974;42.664;23.264;2024-01-11T01:17:57;95245.16;;;-6.70;89.24
77041;BME280;65974;42.664;23.264;2024-01-11T01:20:23;95251.13;;;-6.69;90.44
77041;BME280;65974;42.664;23.264;2024-01-11T01:22:49;95247.97;;;-6.76;89.49
77041;BME280;65974;42.664;23.264;2024-01-11T01:25:15;95253.22;;;-6.66;89.74
77041;BME280;65974;42.664;23.264;2024-01-11T01:27:41;95251.16;;;-6.64;88.90
77041;BME280;65974;42.664;23.264;2024-01-11T01:30:09;95243.38;;;-6.64;88.61
77041;BME280;65974;42.664;23.264;2024-01-11T01:32:34;95248.00;;;-6.71;88.83
77041;BME280;65974;42.664;23.264;2024-01-11T01:35:00;95246.53;;;-6.57;88.81
77041;BME280;65974;42.664;23.264;2024-01-11T01:37:25;95239.66;;;-6.78;89.37
77041;BME280;65974;42.664;23.264;2024-01-11T01:39:51;95232.16;;;-6.80;90.01
77041;BME280;65974;42.664;23.264;2024-01-11T01:42:17;95231.16;;;-6.74;90.08
77041;BME280;65974;42.664;23.264;2024-01-11T01:44:45;95222.50;;;-6.89;90.18
77041;BME280;65974;42.664;23.264;2024-01-11T01:47:10;95222.81;;;-6.86;90.00
77041;BME280;65974;42.664;23.264;2024-01-11T01:49:37;95223.34;;;-6.79;89.86
77041;BME280;65974;42.664;23.264;2024-01-11T01:52:05;95212.25;;;-6.74;89.32
77041;BME280;65974;42.664;23.264;2024-01-11T01:54:32;95215.31;;;-6.82;89.25
77041;BME280;65974;42.664;23.264;2024-01-11T01:57:02;95209.59;;;-6.84;89.34
77041;BME280;65974;42.664;23.264;2024-01-11T01:59:47;95205.75;;;-6.77;89.67
77041;BME280;65974;42.664;23.264;2024-01-11T02:04:50;95198.03;;;-6.72;89.25
77041;BME280;65974;42.664;23.264;2024-01-11T02:07:15;95201.63;;;-6.73;89.40
77041;BME280;65974;42.664;23.264;2024-01-11T02:09:42;95198.72;;;-6.81;89.92
77041;BME280;65974;42.664;23.264;2024-01-11T02:12:09;95201.72;;;-6.63;89.32
77041;BME280;65974;42.664;23.264;2024-01-11T02:14:39;95199.53;;;-6.81;89.23
77041;BME280;65974;42.664;23.264;2024-01-11T02:17:05;95198.81;;;-6.71;89.60
77041;BME280;65974;42.664;23.264;2024-01-11T02:19:31;95202.94;;;-6.75;89.92
77041;BME280;65974;42.664;23.264;2024-01-11T02:22:01;95205.63;;;-6.60;89.02
77041;BME280;65974;42.664;23.264;2024-01-11T02:24:27;95193.59;;;-6.76;89.14
77041;BME280;65974;42.664;23.264;2024-01-11T02:29:25;95193.91;;;-6.68;88.81
77041;BME280;65974;42.664;23.264;2024-01-11T02:31:51;95199.09;;;-6.68;88.63
77041;BME280;65974;42.664;23.264;2024-01-11T02:34:17;95196.19;;;-6.76;89.63
77041;BME280;65974;42.664;23.264;2024-01-11T02:36:42;95191.44;;;-6.89;89.17
77041;BME280;65974;42.664;23.264;2024-01-11T02:39:09;95191.22;;;-6.83;89.17
77041;BME280;65974;42.664;23.264;2024-01-11T02:41:35;95184.00;;;-6.81;89.65
77041;BME280;65974;42.664;23.264;2024-01-11T02:44:02;95195.19;;;-6.70;88.89
77041;BME280;65974;42.664;23.264;2024-01-11T02:46:27;95192.00;;;-6.82;89.15
77041;BME280;65974;42.664;23.264;2024-01-11T02:48:53;95182.66;;;-6.88;89.56
77041;BME280;65974;42.664;23.264;2024-01-11T02:51:18;95185.00;;;-6.87;90.09
77041;BME280;65974;42.664;23.264;2024-01-11T02:53:44;95183.72;;;-6.84;90.17
77041;BME280;65974;42.664;23.264;2024-01-11T02:56:09;95184.72;;;-6.90;90.04
77041;BME280;65974;42.664;23.264;2024-01-11T02:58:34;95180.34;;;-6.90;90.03
77041;BME280;65974;42.664;23.264;2024-01-11T03:01:00;95179.91;;;-6.72;89.84
77041;BME280;65974;42.664;23.264;2024-01-11T03:03:25;95172.66;;;-6.70;89.63
77041;BME280;65974;42.664;23.264;2024-01-11T03:05:51;95182.16;;;-6.85;89.68
77041;BME280;65974;42.664;23.264;2024-01-11T03:08:17;95173.84;;;-6.92;90.22
77041;BME280;65974;42.664;23.264;2024-01-11T03:10:42;95174.41;;;-6.80;90.02
77041;BME280;65974;42.664;23.264;2024-01-11T03:13:08;95184.38;;;-6.62;89.34
77041;BME280;65974;42.664;23.264;2024-01-11T03:15:33;95176.88;;;-6.59;89.13
77041;BME280;65974;42.664;23.264;2024-01-11T03:17:59;95185.66;;;-6.65;90.79
77041;BME280;65974;42.664;23.264;2024-01-11T03:20:24;95179.13;;;-6.72;89.19
77041;BME280;65974;42.664;23.264;2024-01-11T03:22:51;95177.53;;;-6.78;89.69
77041;BME280;65974;42.664;23.264;2024-01-11T03:25:19;95176.13;;;-6.96;89.56
77041;BME280;65974;42.664;23.264;2024-01-11T03:27:44;95170.25;;;-6.86;89.71
77041;BME280;65974;42.664;23.264;2024-01-11T03:30:12;95177.50;;;-6.83;89.94
77041;BME280;65974;42.664;23.264;2024-01-11T03:32:38;95177.97;;;-6.91;89.17
77041;BME280;65974;42.664;23.264;2024-01-11T03:35:10;95173.84;;;-6.92;89.76
77041;BME280;65974;42.664;23.264;2024-01-11T03:37:35;95161.94;;;-6.88;88.63
77041;BME280;65974;42.664;23.264;2024-01-11T03:40:02;95175.19;;;-6.80;88.82
77041;BME280;65974;42.664;23.264;2024-01-11T03:42:28;95169.25;;;-6.80;88.25
77041;BME280;65974;42.664;23.264;2024-01-11T03:44:54;95168.22;;;-6.79;88.19
77041;BME280;65974;42.664;23.264;2024-01-11T03:47:20;95172.09;;;-6.77;88.02
77041;BME280;65974;42.664;23.264;2024-01-11T03:49:45;95167.13;;;-6.88;88.25
77041;BME280;65974;42.664;23.264;2024-01-11T03:52:11;95166.66;;;-6.80;88.23
77041;BME280;65974;42.664;23.264;2024-01-11T03:54:38;95171.31;;;-6.82;88.14
77041;BME280;65974;42.664;23.264;2024-01-11T03:57:04;95161.47;;;-6.80;88.31
77041;BME280;65974;42.664;23.264;2024-01-11T03:59:30;95168.22;;;-6.74;87.79
77041;BME280;65974;42.664;23.264;2024-01-11T04:01:57;95163.28;;;-6.81;88.11
77041;BME280;65974;42.664;23.264;2024-01-11T04:04:22;95161.44;;;-6.90;88.54
77041;BME280;65974;42.664;23.264;2024-01-11T04:06:48;95161.97;;;-6.83;88.27
77041;BME280;65974;42.664;23.264;2024-01-11T04:09:14;95159.31;;;-6.93;88.68
77041;BME280;65974;42.664;23.264;2024-01-11T04:11:39;95155.19;;;-6.89;89.08
77041;BME280;65974;42.664;23.264;2024-01-11T04:14:04;95156.78;;;-6.88;88.78
77041;BME280;65974;42.664;23.264;2024-01-11T04:16:31;95145.84;;;-6.95;89.10
77041;BME280;65974;42.664;23.264;2024-01-11T04:18:57;95144.53;;;-6.98;89.04
77041;BME280;65974;42.664;23.264;2024-01-11T04:21:23;95150.47;;;-7.02;89.71
77041;BME280;65974;42.664;23.264;2024-01-11T04:23:49;95144.75;;;-7.04;88.96
77041;BME280;65974;42.664;23.264;2024-01-11T04:26:14;95135.97;;;-7.03;89.25
77041;BME280;65974;42.664;23.264;2024-01-11T04:28:40;95146.19;;;-7.29;89.78
77041;BME280;65974;42.664;23.264;2024-01-11T04:31:09;95145.88;;;-7.32;90.01
77041;BME280;65974;42.664;23.264;2024-01-11T04:33:34;95136.03;;;-7.35;90.23
77041;BME280;65974;42.664;23.264;2024-01-11T04:36:00;95148.72;;;-7.34;90.36
77041;BME280;65974;42.664;23.264;2024-01-11T04:38:25;95145.13;;;-7.33;90.40
77041;BME280;65974;42.664;23.264;2024-01-11T04:40:51;95148.03;;;-7.19;90.00
77041;BME280;65974;42.664;23.264;2024-01-11T04:43:18;95144.72;;;-7.15;89.70
77041;BME280;65974;42.664;23.264;2024-01-11T04:45:43;95141.03;;;-7.24;89.83
77041;BME280;65974;42.664;23.264;2024-01-11T04:48:09;95142.59;;;-7.23;89.89
77041;BME280;65974;42.664;23.264;2024-01-11T04:50:35;95146.28;;;-7.08;90.64
77041;BME280;65974;42.664;23.264;2024-01-11T04:53:00;95156.63;;;-7.14;89.67
77041;BME280;65974;42.664;23.264;2024-01-11T04:55:26;95154.28;;;-7.15;89.82
77041;BME280;65974;42.664;23.264;2024-01-11T04:57:51;95159.44;;;-7.20;89.86
77041;BME280;65974;42.664;23.264;2024-01-11T05:00:18;95152.91;;;-7.28;89.73
77041;BME280;65974;42.664;23.264;2024-01-11T05:02:44;95152.22;;;-7.13;91.70
77041;BME280;65974;42.664;23.264;2024-01-11T05:05:10;95151.72;;;-7.10;89.88
77041;BME280;65974;42.664;23.264;2024-01-11T05:07:36;95157.06;;;-7.22;90.88
77041;BME280;65974;42.664;23.264;2024-01-11T05:10:02;95149.31;;;-7.27;90.65
77041;BME280;65974;42.664;23.264;2024-01-11T05:12:28;95147.47;;;-7.31;90.27
77041;BME280;65974;42.664;23.264;2024-01-11T05:14:54;95148.78;;;-7.24;90.79
77041;BME280;65974;42.664;23.264;2024-01-11T05:17:21;95146.50;;;-7.15;89.87
77041;BME280;65974;42.664;23.264;2024-01-11T05:19:47;95148.44;;;-7.37;89.83
77041;BME280;65974;42.664;23.264;2024-01-11T05:22:13;95139.84;;;-7.43;90.50
77041;BME280;65974;42.664;23.264;2024-01-11T05:24:39;95139.63;;;-7.41;90.91
77041;BME280;65974;42.664;23.264;2024-01-11T05:27:04;95127.47;;;-7.41;90.89
77041;BME280;65974;42.664;23.264;2024-01-11T05:29:30;95130.69;;;-7.24;90.32
77041;BME280;65974;42.664;23.264;2024-01-11T05:31:56;95125.06;;;-7.16;89.75
77041;BME280;65974;42.664;23.264;2024-01-11T05:34:22;95125.50;;;-7.24;89.41
77041;BME280;65974;42.664;23.264;2024-01-11T05:36:48;95134.31;;;-7.25;89.63
77041;BME280;65974;42.664;23.264;2024-01-11T05:39:14;95119.84;;;-7.21;90.11
77041;BME280;65974;42.664;23.264;2024-01-11T05:41:39;95122.22;;;-7.14;89.87
77041;BME280;65974;42.664;23.264;2024-01-11T05:44:08;95124.28;;;-7.16;90.20
77041;BME280;65974;42.664;23.264;2024-01-11T05:46:34;95118.75;;;-7.30;89.71
77041;BME280;65974;42.664;23.264;2024-01-11T05:48:59;95122.13;;;-7.29;90.94
77041;BME280;65974;42.664;23.264;2024-01-11T05:51:25;95123.44;;;-7.27;91.83
77041;BME280;65974;42.664;23.264;2024-01-11T05:53:52;95120.84;;;-7.22;92.37
77041;BME280;65974;42.664;23.264;2024-01-11T05:56:18;95112.03;;;-7.26;91.13
77041;BME280;65974;42.664;23.264;2024-01-11T05:58:45;95107.38;;;-7.24;91.48
77041;BME280;65974;42.664;23.264;2024-01-11T06:01:11;95109.78;;;-7.12;91.92
77041;BME280;65974;42.664;23.264;2024-01-11T06:03:37;95102.00;;;-7.17;90.29
77041;BME280;65974;42.664;23.264;2024-01-11T06:06:03;95107.38;;;-7.24;89.32
77041;BME280;65974;42.664;23.264;2024-01-11T06:08:29;95103.53;;;-7.26;89.60
77041;BME280;65974;42.664;23.264;2024-01-11T06:10:56;95105.53;;;-7.28;89.73
77041;BME280;65974;42.664;23.264;2024-01-11T06:13:21;95106.66;;;-7.19;89.74
77041;BME280;65974;42.664;23.264;2024-01-11T06:15:47;95105.94;;;-7.09;89.48
77041;BME280;65974;42.664;23.264;2024-01-11T06:18:13;95092.69;;;-7.13;89.64
77041;BME280;65974;42.664;23.264;2024-01-11T06:20:39;95105.94;;;-7.09;89.95
77041;BME280;65974;42.664;23.264;2024-01-11T06:23:05;95107.00;;;-7.00;90.24
77041;BME280;65974;42.664;23.264;2024-01-11T06:25:33;95100.00;;;-7.00;89.58
77041;BME280;65974;42.664;23.264;2024-01-11T06:27:59;95103.13;;;-6.98;90.00
77041;BME280;65974;42.664;23.264;2024-01-11T06:30:25;95097.25;;;-6.88;90.36
77041;BME280;65974;42.664;23.264;2024-01-11T06:32:50;95095.09;;;-7.01;90.02
77041;BME280;65974;42.664;23.264;2024-01-11T06:35:16;95097.66;;;-7.06;90.32
77041;BME280;65974;42.664;23.264;2024-01-11T06:37:41;95091.66;;;-7.17;90.61
77041;BME280;65974;42.664;23.264;2024-01-11T06:40:07;95089.34;;;-7.14;90.91
77041;BME280;65974;42.664;23.264;2024-01-11T06:42:34;95081.63;;;-7.03;90.72
77041;BME280;65974;42.664;23.264;2024-01-11T06:45:00;95086.84;;;-6.98;90.43
77041;BME280;65974;42.664;23.264;2024-01-11T06:47:26;95079.94;;;-6.78;90.19
77041;BME280;65974;42.664;23.264;2024-01-11T06:49:52;95080.22;;;-6.69;90.09
77041;BME280;65974;42.664;23.264;2024-01-11T06:52:17;95083.59;;;-6.64;90.24
77041;BME280;65974;42.664;23.264;2024-01-11T06:54:43;95090.34;;;-6.58;89.85
77041;BME280;65974;42.664;23.264;2024-01-11T06:57:08;95088.56;;;-6.47;89.82
77041;BME280;65974;42.664;23.264;2024-01-11T06:59:34;95090.41;;;-6.48;89.39
77041;BME280;65974;42.664;23.264;2024-01-11T07:02:00;95084.44;;;-6.48;89.07
77041;BME280;65974;42.664;23.264;2024-01-11T07:04:25;95089.09;;;-6.50;89.26
77041;BME280;65974;42.664;23.264;2024-01-11T07:06:52;95092.97;;;-6.43;89.10
77041;BME280;65974;42.664;23.264;2024-01-11T07:09:17;95090.16;;;-6.36;89.14
77041;BME280;65974;42.664;23.264;2024-01-11T07:11:43;95088.84;;;-6.44;88.85
77041;BME280;65974;42.664;23.264;2024-01-11T07:14:09;95092.97;;;-6.53;88.74
77041;BME280;65974;42.664;23.264;2024-01-11T07:16:36;95091.19;;;-6.37;88.87
77041;BME280;65974;42.664;23.264;2024-01-11T07:19:01;95080.28;;;-6.44;88.31
77041;BME280;65974;42.664;23.264;2024-01-11T07:21:27;95085.22;;;-6.38;88.68
77041;BME280;65974;42.664;23.264;2024-01-11T07:23:57;95084.69;;;-6.45;88.25
77041;BME280;65974;42.664;23.264;2024-01-11T07:26:23;95080.81;;;-6.42;88.47
77041;BME280;65974;42.664;23.264;2024-01-11T07:28:49;95079.00;;;-6.37;88.28
77041;BME280;65974;42.664;23.264;2024-01-11T07:31:15;95080.09;;;-6.12;87.53
77041;BME280;65974;42.664;23.264;2024-01-11T07:33:41;95070.75;;;-6.18;87.52
77041;BME280;65974;42.664;23.264;2024-01-11T07:36:07;95075.66;;;-6.17;87.58
77041;BME280;65974;42.664;23.264;2024-01-11T07:38:32;95076.22;;;-6.05;87.55
77041;BME280;65974;42.664;23.264;2024-01-11T07:40:58;95075.44;;;-6.00;87.19
77041;BME280;65974;42.664;23.264;2024-01-11T07:43:23;95076.22;;;-6.00;87.29
77041;BME280;65974;42.664;23.264;2024-01-11T07:45:51;95081.94;;;-5.93;86.65
77041;BME280;65974;42.664;23.264;2024-01-11T07:48:17;95078.03;;;-5.85;86.25
77041;BME280;65974;42.664;23.264;2024-01-11T07:50:42;95077.22;;;-5.61;85.57
77041;BME280;65974;42.664;23.264;2024-01-11T07:53:08;95081.13;;;-5.63;85.37
77041;BME280;65974;42.664;23.264;2024-01-11T07:55:33;95071.78;;;-5.54;85.06
77041;BME280;65974;42.664;23.264;2024-01-11T07:57:59;95073.06;;;-5.62;84.79
77041;BME280;65974;42.664;23.264;2024-01-11T08:00:24;95068.16;;;-5.58;84.75
77041;BME280;65974;42.664;23.264;2024-01-11T08:02:50;95063.97;;;-5.39;84.59
77041;BME280;65974;42.664;23.264;2024-01-11T08:05:15;95063.72;;;-5.42;84.34
77041;BME280;65974;42.664;23.264;2024-01-11T08:07:41;95056.44;;;-5.35;84.31
77041;BME280;65974;42.664;23.264;2024-01-11T08:10:10;95066.03;;;-5.36;84.23
77041;BME280;65974;42.664;23.264;2024-01-11T08:12:37;95059.28;;;-5.32;83.83
77041;BME280;65974;42.664;23.264;2024-01-11T08:15:03;95064.44;;;-5.17;83.50
77041;BME280;65974;42.664;23.264;2024-01-11T08:17:28;95060.81;;;-5.16;82.85
77041;BME280;65974;42.664;23.264;2024-01-11T08:19:54;95054.28;;;-5.03;82.84
77041;BME280;65974;42.664;23.264;2024-01-11T08:22:22;95060.50;;;-5.04;82.55
77041;BME280;65974;42.664;23.264;2024-01-11T08:24:48;95046.41;;;-4.78;81.75
77041;BME280;65974;42.664;23.264;2024-01-11T08:27:14;95052.09;;;-4.71;81.62
77041;BME280;65974;42.664;23.264;2024-01-11T08:29:43;95043.72;;;-4.63;81.32
77041;BME280;65974;42.664;23.264;2024-01-11T08:32:09;95048.41;;;-4.60;81.20
77041;BME280;65974;42.664;23.264;2024-01-11T08:34:34;95045.81;;;-4.65;81.51
77041;BME280;65974;42.664;23.264;2024-01-11T08:37:01;95047.78;;;-4.42;80.88
77041;BME280;65974;42.664;23.264;2024-01-11T08:39:26;95052.75;;;-4.45;80.43
77041;BME280;65974;42.664;23.264;2024-01-11T08:41:53;95048.78;;;-4.38;80.38
77041;BME280;65974;42.664;23.264;2024-01-11T08:44:20;95053.09;;;-4.18;79.84
77041;BME280;65974;42.664;23.264;2024-01-11T08:46:45;95057.00;;;-4.21;79.55
77041;BME280;65974;42.664;23.264;2024-01-11T08:49:11;95052.00;;;-4.07;79.69
77041;BME280;65974;42.664;23.264;2024-01-11T08:51:38;95040.81;;;-4.08;78.86
77041;BME280;65974;42.664;23.264;2024-01-11T08:54:03;95042.72;;;-3.84;78.37
77041;BME280;65974;42.664;23.264;2024-01-11T08:56:29;95041.69;;;-3.88;77.52
77041;BME280;65974;42.664;23.264;2024-01-11T08:58:55;95034.13;;;-3.85;77.39
77041;BME280;65974;42.664;23.264;2024-01-11T09:01:20;95035.38;;;-3.77;76.81
77041;BME280;65974;42.664;23.264;2024-01-11T09:03:47;95026.00;;;-3.78;76.77
77041;BME280;65974;42.664;23.264;2024-01-11T09:06:13;95026.88;;;-3.59;76.61
77041;BME280;65974;42.664;23.264;2024-01-11T09:08:39;95020.56;;;-3.53;75.71
77041;BME280;65974;42.664;23.264;2024-01-11T09:11:08;95019.56;;;-3.57;76.40
77041;BME280;65974;42.664;23.264;2024-01-11T09:13:36;95010.84;;;-3.43;74.90
77041;BME280;65974;42.664;23.264;2024-01-11T09:16:01;95009.44;;;-3.30;74.81
77041;BME280;65974;42.664;23.264;2024-01-11T09:18:28;95012.50;;;-3.04;73.94
77041;BME280;65974;42.664;23.264;2024-01-11T09:20:54;95012.75;;;-3.01;73.80
77041;BME280;65974;42.664;23.264;2024-01-11T09:23:21;95010.19;;;-2.64;73.10
77041;BME280;65974;42.664;23.264;2024-01-11T09:25:46;95009.22;;;-2.68;72.24
77041;BME280;65974;42.664;23.264;2024-01-11T09:28:12;94996.25;;;-2.73;72.35
77041;BME280;65974;42.664;23.264;2024-01-11T09:30:37;95001.88;;;-2.66;72.07
77041;BME280;65974;42.664;23.264;2024-01-11T09:33:04;94998.81;;;-2.30;70.90
77041;BME280;65974;42.664;23.264;2024-01-11T09:35:30;94994.91;;;-2.14;70.31
77041;BME280;65974;42.664;23.264;2024-01-11T09:37:55;94980.72;;;-1.90;70.19
77041;BME280;65974;42.664;23.264;2024-01-11T09:40:23;94989.16;;;-1.79;69.95
77041;BME280;65974;42.664;23.264;2024-01-11T09:42:49;94975.97;;;-1.55;69.28
77041;BME280;65974;42.664;23.264;2024-01-11T09:45:16;94974.84;;;-1.68;68.78
77041;BME280;65974;42.664;23.264;2024-01-11T09:47:43;94969.06;;;-1.65;69.48
77041;BME280;65974;42.664;23.264;2024-01-11T09:50:11;94959.59;;;-1.75;68.98
77041;BME280;65974;42.664;23.264;2024-01-11T09:52:49;94951.09;;;-1.67;69.41
77041;BME280;65974;42.664;23.264;2024-01-11T09:55:15;94943.59;;;-1.87;69.46
77041;BME280;65974;42.664;23.264;2024-01-11T09:57:44;94947.22;;;-2.01;69.94
77041;BME280;65974;42.664;23.264;2024-01-11T10:00:16;94943.72;;;-2.10;71.55
77041;BME280;65974;42.664;23.264;2024-01-11T10:02:45;94938.72;;;-2.25;72.28
77041;BME280;65974;42.664;23.264;2024-01-11T10:05:11;94936.94;;;-2.44;71.76
77041;BME280;65974;42.664;23.264;2024-01-11T10:07:39;94933.66;;;-2.17;72.71
77041;BME280;65974;42.664;23.264;2024-01-11T10:10:05;94926.53;;;-2.11;71.52
77041;BME280;65974;42.664;23.264;2024-01-11T10:12:34;94926.41;;;-1.74;71.13
77041;BME280;65974;42.664;23.264;2024-01-11T10:15:18;94918.69;;;-1.79;71.13
77041;BME280;65974;42.664;23.264;2024-01-11T10:17:44;94913.28;;;-1.42;69.66
77041;BME280;65974;42.664;23.264;2024-01-11T10:20:11;94907.75;;;-1.68;69.24
77041;BME280;65974;42.664;23.264;2024-01-11T10:22:39;94907.09;;;-1.73;69.23
77041;BME280;65974;42.664;23.264;2024-01-11T10:25:14;94899.34;;;-1.24;68.80
77041;BME280;65974;42.664;23.264;2024-01-11T10:27:40;94904.16;;;-1.04;68.18
77041;BME280;65974;42.664;23.264;2024-01-11T10:30:12;94889.66;;;-0.60;67.10
77041;BME280;65974;42.664;23.264;2024-01-11T10:32:39;94892.72;;;-0.58;66.52
77041;BME280;65974;42.664;23.264;2024-01-11T10:35:04;94877.00;;;-0.81;66.61
77041;BME280;65974;42.664;23.264;2024-01-11T10:37:31;94873.88;;;-0.47;67.12
77041;BME280;65974;42.664;23.264;2024-01-11T10:40:04;94874.59;;;-0.55;65.60
77041;BME280;65974;42.664;23.264;2024-01-11T10:42:41;94864.84;;;-0.63;66.03
77041;BME280;65974;42.664;23.264;2024-01-11T10:45:13;94866.91;;;-0.73;65.67
77041;BME280;65974;42.664;23.264;2024-01-11T10:50:15;94863.47;;;-0.16;66.04
77041;BME280;65974;42.664;23.264;2024-01-11T10:52:45;94854.38;;;-0.19;64.66
77041;BME280;65974;42.664;23.264;2024-01-11T10:55:13;94843.63;;;0.14;64.77
77041;BME280;65974;42.664;23.264;2024-01-11T10:57:40;94853.31;;;0.13;64.84
77041;BME280;65974;42.664;23.264;2024-01-11T11:00:06;94847.63;;;0.20;65.11
77041;BME280;65974;42.664;23.264;2024-01-11T11:02:37;94840.91;;;-0.04;65.12
77041;BME280;65974;42.664;23.264;2024-01-11T11:05:03;94830.13;;;-0.02;65.47
77041;BME280;65974;42.664;23.264;2024-01-11T11:07:33;94824.63;;;-0.01;65.01
77041;BME280;65974;42.664;23.264;2024-01-11T11:10:01;94816.25;;;0.28;65.14
77041;BME280;65974;42.664;23.264;2024-01-11T11:12:31;94813.38;;;0.38;65.06
77041;BME280;65974;42.664;23.264;2024-01-11T11:14:58;94808.16;;;0.47;63.74
77041;BME280;65974;42.664;23.264;2024-01-11T11:17:25;94806.31;;;0.56;64.06
77041;BME280;65974;42.664;23.264;2024-01-11T11:19:52;94806.56;;;0.37;64.30
77041;BME280;65974;42.664;23.264;2024-01-11T11:22:19;94788.41;;;0.41;64.89
77041;BME280;65974;42.664;23.264;2024-01-11T11:24:45;94793.78;;;0.36;64.49
77041;BME280;65974;42.664;23.264;2024-01-11T11:27:13;94781.72;;;0.26;64.67
77041;BME280;65974;42.664;23.264;2024-01-11T11:29:39;94773.91;;;0.35;64.04
77041;BME280;65974;42.664;23.264;2024-01-11T11:32:10;94770.63;;;0.21;64.87
77041;BME280;65974;42.664;23.264;2024-01-11T11:34:42;94758.38;;;0.64;63.91
77041;BME280;65974;42.664;23.264;2024-01-11T11:37:09;94766.25;;;0.64;63.80
77041;BME280;65974;42.664;23.264;2024-01-11T11:39:36;94752.38;;;0.46;63.95
77041;BME280;65974;42.664;23.264;2024-01-11T11:42:01;94756.69;;;0.51;64.30
77041;BME280;65974;42.664;23.264;2024-01-11T11:44:28;94752.97;;;0.43;64.92
77041;BME280;65974;42.664;23.264;2024-01-11T11:46:54;94743.41;;;0.47;64.80
77041;BME280;65974;42.664;23.264;2024-01-11T11:49:19;94746.94;;;0.34;65.14
77041;BME280;65974;42.664;23.264;2024-01-11T11:51:45;94760.00;;;0.26;65.41
77041;BME280;65974;42.664;23.264;2024-01-11T11:54:11;94744.97;;;0.57;66.04
77041;BME280;65974;42.664;23.264;2024-01-11T11:56:36;94743.75;;;0.71;65.90
77041;BME280;65974;42.664;23.264;2024-01-11T11:59:03;94743.75;;;0.54;65.97
77041;BME280;65974;42.664;23.264;2024-01-11T12:01:29;94732.19;;;0.55;67.09
77041;BME280;65974;42.664;23.264;2024-01-11T12:03:57;94734.81;;;0.55;67.48
77041;BME280;65974;42.664;23.264;2024-01-11T12:06:22;94723.22;;;0.48;69.18
77041;BME280;65974;42.664;23.264;2024-01-11T12:08:51;94724.78;;;0.49;68.06
77041;BME280;65974;42.664;23.264;2024-01-11T12:11:19;94725.25;;;0.42;69.78
77041;BME280;65974;42.664;23.264;2024-01-11T12:13:49;94719.34;;;0.28;69.06
77041;BME280;65974;42.664;23.264;2024-01-11T12:16:15;94717.38;;;0.42;69.62
77041;BME280;65974;42.664;23.264;2024-01-11T12:18:41;94704.88;;;0.31;69.85
77041;BME280;65974;42.664;23.264;2024-01-11T12:21:08;94708.09;;;0.36;69.65
77041;BME280;65974;42.664;23.264;2024-01-11T12:23:34;94700.41;;;0.40;70.39
77041;BME280;65974;42.664;23.264;2024-01-11T12:26:03;94695.78;;;0.45;70.03
77041;BME280;65974;42.664;23.264;2024-01-11T12:28:33;94689.19;;;0.56;70.40
77041;BME280;65974;42.664;23.264;2024-01-11T12:30:59;94681.47;;;0.51;70.24
77041;BME280;65974;42.664;23.264;2024-01-11T12:33:26;94678.25;;;0.63;69.95
77041;BME280;65974;42.664;23.264;2024-01-11T12:35:52;94679.63;;;0.77;70.36
77041;BME280;65974;42.664;23.264;2024-01-11T12:38:17;94673.59;;;0.94;69.39
77041;BME280;65974;42.664;23.264;2024-01-11T12:40:45;94673.13;;;1.01;68.54
77041;BME280;65974;42.664;23.264;2024-01-11T12:43:11;94660.91;;;1.05;68.71
77041;BME280;65974;42.664;23.264;2024-01-11T12:45:37;94662.94;;;1.08;68.67
77041;BME280;65974;42.664;23.264;2024-01-11T12:48:06;94656.44;;;1.14;69.12
77041;BME280;65974;42.664;23.264;2024-01-11T12:50:33;94649.03;;;1.16;68.68
77041;BME280;65974;42.664;23.264;2024-01-11T12:53:14;94651.31;;;1.26;68.90
77041;BME280;65974;42.664;23.264;2024-01-11T12:55:49;94645.75;;;1.27;68.50
77041;BME280;65974;42.664;23.264;2024-01-11T12:58:19;94636.03;;;1.19;68.52